createdAt,value
2018-04-12T00:01:52.531Z,7.25
2018-04-12T00:04:18.698Z,6.82
2018-04-12T00:06:44.870Z,6.78
2018-04-12T00:09:10.953Z,6.62
2018-04-12T00:11:36.984Z,6.30
2018-04-12T00:14:03.035Z,6.60
2018-04-12T00:16:29.061Z,6.72
2018-04-12T00:18:55.106Z,6.20
2018-04-12T00:21:21.258Z,6.45
2018-04-12T00:23:48.027Z,6.55
2018-04-12T00:26:14.064Z,6.97
2018-04-12T00:28:40.106Z,7.78
2018-04-12T00:31:06.127Z,7.43
2018-04-12T00:33:32.263Z,7.32
2018-04-12T00:35:58.279Z,7.82
2018-04-12T00:38:24.310Z,8.00
2018-04-12T00:40:50.321Z,8.55
2018-04-12T00:43:16.358Z,8.25
2018-04-12T00:45:42.354Z,7.80
2018-04-12T00:48:08.489Z,9.68
2018-04-12T00:50:34.487Z,8.98
2018-04-12T00:53:00.574Z,9.02
2018-04-12T00:55:27.319Z,7.93
2018-04-12T00:57:54.090Z,8.30
2018-04-12T01:00:20.145Z,8.75
2018-04-12T01:02:46.191Z,8.63
2018-04-12T01:05:13.178Z,8.95
2018-04-12T01:07:39.210Z,9.20
2018-04-12T01:10:05.246Z,8.15
2018-04-12T01:12:31.391Z,8.80
2018-04-12T01:14:57.422Z,8.32
2018-04-12T01:17:23.450Z,9.23
2018-04-12T01:19:49.566Z,8.90
2018-04-12T01:22:15.605Z,8.27
2018-04-12T01:24:41.639Z,8.90
2018-04-12T01:27:07.798Z,8.27
2018-04-12T01:29:33.802Z,8.50
2018-04-12T01:32:00.618Z,8.30
2018-04-12T01:34:26.636Z,8.43
2018-04-12T01:36:52.770Z,7.65
2018-04-12T01:39:18.771Z,8.35
2018-04-12T01:41:44.774Z,8.10
2018-04-12T01:44:10.835Z,7.87
2018-04-12T01:46:36.853Z,8.25
2018-04-12T01:49:02.920Z,7.10
2018-04-12T01:51:29.670Z,7.82
2018-04-12T01:53:55.798Z,8.77
2018-04-12T01:56:21.811Z,8.38
2018-04-12T01:58:48.566Z,8.27
2018-04-12T02:01:14.569Z,8.90
2018-04-12T02:03:41.350Z,7.87
2018-04-12T02:06:07.349Z,8.93
2018-04-12T02:08:33.466Z,8.10
2018-04-12T02:10:59.594Z,7.87
2018-04-12T02:13:25.668Z,8.48
2018-04-12T02:15:51.707Z,8.30
2018-04-12T02:18:17.706Z,8.93
2018-04-12T02:20:43.730Z,8.10
2018-04-12T02:23:09.806Z,8.07
2018-04-12T02:25:36.674Z,9.70
2018-04-12T02:28:02.706Z,10.35
2018-04-12T02:30:28.776Z,10.00
2018-04-12T02:32:54.786Z,10.73
2018-04-12T02:35:20.805Z,11.00
2018-04-12T02:37:46.847Z,11.10
2018-04-12T02:40:13.647Z,11.90
2018-04-12T02:42:39.714Z,11.55
2018-04-12T02:45:06.477Z,10.20
2018-04-12T02:47:32.620Z,11.00
2018-04-12T02:49:58.704Z,10.75
2018-04-12T02:52:24.731Z,10.27
2018-04-12T02:54:50.736Z,10.05
2018-04-12T02:57:16.778Z,10.02
2018-04-12T02:59:43.535Z,9.98
2018-04-12T03:02:10.331Z,10.50
2018-04-12T03:04:36.607Z,9.88
2018-04-12T03:07:02.602Z,11.85
2018-04-12T03:09:28.624Z,10.98
2018-04-12T03:11:54.615Z,11.12
2018-04-12T03:14:20.663Z,10.18
2018-04-12T03:16:46.659Z,11.05
2018-04-12T03:19:12.843Z,10.20
2018-04-12T03:21:39.585Z,11.15
2018-04-12T03:24:06.347Z,11.50
2018-04-12T03:26:32.382Z,11.10
2018-04-12T03:28:58.371Z,12.35
2018-04-12T03:31:25.172Z,11.12
2018-04-12T03:33:51.199Z,11.60
2018-04-12T03:36:17.325Z,11.27
2018-04-12T03:38:43.318Z,10.75
2018-04-12T03:41:09.346Z,10.70
2018-04-12T03:43:35.344Z,11.20
2018-04-12T03:46:01.381Z,12.73
2018-04-12T03:48:27.395Z,12.30
2018-04-12T03:50:53.555Z,11.30
2018-04-12T03:53:19.579Z,13.00
2018-04-12T03:55:45.586Z,12.73
2018-04-12T03:58:11.630Z,13.00
2018-04-12T04:00:37.631Z,12.07
2018-04-12T04:03:03.662Z,11.50
2018-04-12T04:05:29.845Z,11.82
2018-04-12T04:07:56.742Z,11.98
2018-04-12T04:10:22.823Z,11.77
2018-04-12T04:12:48.866Z,12.60
2018-04-12T04:15:14.894Z,12.63
2018-04-12T04:17:40.980Z,11.50
2018-04-12T04:20:07.746Z,11.70
2018-04-12T04:22:33.839Z,12.68
2018-04-12T04:24:59.866Z,12.37
2018-04-12T04:27:25.882Z,13.43
2018-04-12T04:29:51.914Z,11.18
2018-04-12T04:32:17.941Z,13.82
2018-04-12T04:34:44.826Z,13.27
2018-04-12T04:37:10.850Z,13.30
2018-04-12T04:39:37.737Z,13.10
2018-04-12T04:42:03.772Z,13.52
2018-04-12T04:44:30.628Z,13.55
2018-04-12T04:46:57.391Z,12.75
2018-04-12T04:49:23.446Z,12.95
2018-04-12T04:51:49.504Z,12.65
2018-04-12T04:54:16.247Z,14.00
2018-04-12T04:56:43.142Z,14.77
2018-04-12T04:59:09.182Z,13.90
2018-04-12T05:01:35.213Z,13.62
2018-04-12T05:04:01.336Z,14.93
2018-04-12T05:06:27.336Z,14.68
2018-04-12T05:08:53.395Z,15.48
2018-04-12T05:11:19.410Z,17.05
2018-04-12T05:13:45.557Z,16.02
2018-04-12T05:16:11.562Z,15.35
2018-04-12T05:18:37.638Z,14.48
2018-04-12T05:21:03.670Z,14.55
2018-04-12T05:23:30.427Z,14.90
2018-04-12T05:25:56.422Z,14.05
2018-04-12T05:28:22.562Z,14.60
2018-04-12T05:30:48.591Z,13.77
2018-04-12T05:33:14.595Z,12.93
2018-04-12T05:35:40.627Z,13.88
2018-04-12T05:38:06.663Z,13.05
2018-04-12T05:40:32.695Z,13.38
2018-04-12T05:42:58.716Z,13.15
2018-04-12T05:45:24.839Z,14.27
2018-04-12T05:47:50.859Z,13.90
2018-04-12T05:50:16.870Z,14.80
2018-04-12T05:52:42.898Z,15.00
2018-04-12T05:55:08.946Z,15.85
2018-04-12T05:57:34.985Z,15.40
2018-04-12T06:00:01.019Z,15.27
2018-04-12T06:02:27.200Z,14.27
2018-04-12T06:04:53.343Z,14.48
2018-04-12T06:07:19.385Z,14.05
2018-04-12T06:09:45.446Z,15.57
2018-04-12T06:12:11.454Z,17.45
2018-04-12T06:14:37.619Z,14.35
2018-04-12T06:17:03.656Z,14.65
2018-04-12T06:19:29.701Z,13.57
2018-04-12T06:21:55.699Z,15.38
2018-04-12T06:24:21.718Z,14.55
2018-04-12T06:26:47.710Z,14.20
2018-04-12T06:29:14.598Z,13.98
2018-04-12T06:31:41.347Z,13.50
2018-04-12T06:34:07.405Z,13.27
2018-04-12T06:36:33.399Z,14.48
2018-04-12T06:38:59.393Z,14.00
2018-04-12T06:41:25.443Z,14.57
2018-04-12T06:43:51.473Z,12.95
2018-04-12T06:46:17.502Z,12.88
2018-04-12T06:48:43.500Z,13.30
2018-04-12T06:51:09.692Z,13.30
2018-04-12T06:53:35.711Z,11.70
2018-04-12T06:56:01.729Z,11.05
2018-04-12T06:58:27.847Z,12.70
2018-04-12T07:00:54.640Z,10.45
2018-04-12T07:03:22.023Z,11.93
2018-04-12T07:05:48.067Z,10.07
2018-04-12T07:08:14.971Z,10.27
2018-04-12T07:10:40.987Z,10.63
2018-04-12T07:13:06.999Z,11.05
2018-04-12T07:15:33.036Z,10.05
2018-04-12T07:17:59.794Z,9.85
2018-04-12T07:20:25.832Z,10.57
2018-04-12T07:22:51.850Z,11.30
2018-04-12T07:25:17.955Z,12.15
2018-04-12T07:27:43.956Z,13.15
2018-04-12T07:30:10.022Z,12.80
2018-04-12T07:32:36.052Z,12.63
2018-04-12T07:35:02.115Z,12.93
2018-04-12T07:37:29.057Z,10.80
2018-04-12T07:39:55.055Z,12.10
2018-04-12T07:42:21.826Z,11.20
2018-04-12T07:44:47.836Z,12.25
2018-04-12T07:47:13.858Z,10.30
2018-04-12T07:49:39.928Z,11.00
2018-04-12T07:52:05.951Z,11.18
2018-04-12T07:54:32.106Z,11.55
2018-04-12T07:56:58.111Z,10.02
2018-04-12T07:59:24.143Z,11.12
2018-04-12T08:01:50.150Z,9.75
2018-04-12T08:04:16.198Z,11.32
2018-04-12T08:06:42.220Z,12.13
2018-04-12T08:09:08.401Z,12.57
2018-04-12T08:11:34.575Z,10.40
2018-04-12T08:14:01.336Z,12.30
2018-04-12T08:16:27.374Z,12.00
2018-04-12T08:18:53.428Z,10.18
2018-04-12T08:21:19.469Z,10.73
2018-04-12T08:23:45.494Z,10.95
2018-04-12T08:26:11.633Z,10.73
2018-04-12T08:28:37.659Z,11.70
2018-04-12T08:31:03.727Z,11.73
2018-04-12T08:33:29.767Z,11.50
2018-04-12T08:35:55.869Z,10.50
2018-04-12T08:38:21.938Z,9.90
2018-04-12T08:40:47.949Z,11.18
2018-04-12T08:43:14.067Z,9.48
2018-04-12T08:45:40.102Z,8.00
2018-04-12T08:48:06.168Z,5.95
2018-04-12T08:50:32.191Z,6.35
2018-04-12T08:52:58.965Z,5.90
2018-04-12T08:55:24.970Z,6.62
2018-04-12T08:57:51.106Z,6.50
2018-04-12T09:00:17.103Z,7.03
2018-04-12T09:02:43.122Z,6.05
2018-04-12T09:05:09.257Z,6.12
2018-04-12T09:07:36.023Z,6.20
2018-04-12T09:10:02.078Z,6.00
2018-04-12T09:12:28.101Z,6.53
2018-04-12T09:14:54.170Z,5.37
2018-04-12T09:17:20.938Z,5.55
2018-04-12T09:19:46.973Z,5.03
2018-04-12T09:22:13.026Z,4.45
2018-04-12T09:24:39.049Z,2.80
2018-04-12T09:27:05.106Z,2.75
2018-04-12T09:29:31.854Z,2.95
2018-04-12T09:31:58.611Z,3.20
2018-04-12T09:34:24.750Z,2.25
2018-04-12T09:36:50.775Z,2.95
2018-04-12T09:39:24.056Z,2.05
2018-04-12T09:41:57.606Z,2.45
2018-04-12T09:44:31.115Z,2.33
2018-04-12T09:47:04.293Z,2.50
2018-04-12T09:49:38.257Z,2.40
2018-04-12T09:52:11.382Z,2.05
2018-04-12T09:54:44.622Z,1.98
2018-04-12T09:57:18.721Z,2.35
2018-04-12T09:59:52.648Z,2.22
2018-04-12T10:02:27.075Z,1.70
2018-04-12T10:05:17.214Z,1.85
2018-04-12T10:07:43.350Z,1.80
2018-04-12T10:10:09.406Z,2.08
2018-04-12T10:12:35.462Z,2.30
2018-04-12T10:15:01.477Z,2.08
2018-04-12T10:17:27.579Z,1.80
2018-04-12T10:19:53.603Z,2.12
2018-04-12T10:22:19.654Z,1.95
2018-04-12T10:24:45.680Z,2.03
2018-04-12T10:27:11.715Z,2.35
2018-04-12T10:29:37.778Z,1.60
2018-04-12T10:32:03.801Z,1.90
2018-04-12T10:34:29.866Z,1.98
2018-04-12T10:36:55.892Z,1.75
2018-04-12T10:39:21.939Z,1.52
2018-04-12T10:41:47.972Z,2.05
2018-04-12T10:44:14.156Z,1.58
2018-04-12T10:46:40.179Z,1.50
2018-04-12T10:49:06.238Z,1.67
2018-04-12T10:51:32.291Z,2.30
2018-04-12T10:53:58.296Z,1.40
2018-04-12T10:56:24.338Z,1.45
2018-04-12T10:58:50.359Z,1.50
2018-04-12T11:01:16.499Z,1.65
2018-04-12T11:03:42.554Z,1.60
2018-04-12T11:06:08.609Z,1.10
2018-04-12T11:08:34.776Z,1.20
2018-04-12T11:11:01.556Z,1.40
2018-04-12T11:13:27.598Z,1.17
2018-04-12T11:15:53.670Z,1.58
2018-04-12T11:18:20.613Z,1.25
2018-04-12T11:20:47.367Z,1.27
2018-04-12T11:23:13.460Z,1.20
2018-04-12T11:25:40.235Z,1.10
2018-04-12T11:28:06.269Z,1.23
2018-04-12T11:30:32.299Z,1.20
2018-04-12T11:32:58.339Z,1.00
2018-04-12T11:35:24.426Z,1.23
2018-04-12T11:37:50.449Z,1.10
2018-04-12T11:40:16.597Z,1.30
2018-04-12T11:42:43.350Z,0.80
2018-04-12T11:45:09.445Z,1.12
2018-04-12T11:47:35.442Z,1.27
2018-04-12T11:50:02.332Z,1.08
2018-04-12T11:52:28.350Z,1.00
2018-04-12T11:54:54.387Z,0.80
2018-04-12T11:57:21.380Z,0.90
2018-04-12T11:59:48.166Z,1.00
2018-04-12T12:02:14.207Z,1.17
2018-04-12T12:04:40.237Z,0.85
2018-04-12T12:07:06.449Z,0.95
2018-04-12T12:09:32.609Z,0.98
2018-04-12T12:11:58.655Z,1.00
2018-04-12T12:14:25.413Z,1.00
2018-04-12T12:16:51.478Z,1.05
2018-04-12T12:19:17.566Z,0.93
2018-04-12T12:21:43.586Z,1.30
2018-04-12T12:24:09.746Z,1.15
2018-04-12T12:26:35.770Z,1.00
2018-04-12T12:29:01.807Z,1.20
2018-04-12T12:31:27.850Z,0.90
2018-04-12T12:33:54.660Z,0.90
2018-04-12T12:36:20.666Z,1.10
2018-04-12T12:38:46.681Z,0.90
2018-04-12T12:41:12.849Z,1.20
2018-04-12T12:43:38.875Z,1.20
2018-04-12T12:46:04.937Z,1.15
2018-04-12T12:48:31.010Z,1.00
2018-04-12T12:50:57.068Z,1.00
2018-04-12T12:53:23.802Z,0.90
2018-04-12T12:55:49.911Z,1.37
2018-04-12T12:58:15.919Z,1.00
2018-04-12T13:00:42.108Z,1.25
2018-04-12T13:03:08.152Z,1.05
2018-04-12T13:05:34.328Z,0.90
2018-04-12T13:08:00.390Z,1.10
2018-04-12T13:10:26.430Z,0.98
2018-04-12T13:12:52.451Z,1.20
2018-04-12T13:15:18.458Z,1.15
2018-04-12T13:17:44.618Z,1.00
2018-04-12T13:20:10.634Z,1.30
2018-04-12T13:22:36.670Z,1.33
2018-04-12T13:25:02.766Z,1.25
2018-04-12T13:27:28.799Z,1.10
2018-04-12T13:29:54.816Z,1.20
2018-04-12T13:32:20.981Z,1.33
2018-04-12T13:34:47.036Z,0.90
2018-04-12T13:37:13.102Z,0.98
2018-04-12T13:39:39.176Z,1.10
2018-04-12T13:42:05.950Z,1.45
2018-04-12T13:44:32.108Z,1.50
2018-04-12T13:46:58.129Z,1.40
2018-04-12T13:49:24.203Z,1.30
2018-04-12T13:51:50.242Z,1.30
2018-04-12T13:54:16.295Z,1.40
2018-04-12T13:56:42.377Z,1.90
2018-04-12T13:59:08.436Z,1.23
2018-04-12T14:01:34.467Z,3.40
2018-04-12T14:04:00.522Z,4.25
2018-04-12T14:06:26.738Z,4.60
2018-04-12T14:08:52.884Z,3.90
2018-04-12T14:11:19.696Z,3.60
2018-04-12T14:13:45.716Z,3.70
2018-04-12T14:16:11.815Z,4.95
2018-04-12T14:18:37.826Z,4.65
2018-04-12T14:21:03.864Z,5.00
2018-04-12T14:23:29.915Z,5.40
2018-04-12T14:25:55.932Z,4.70
2018-04-12T14:28:21.981Z,5.40
2018-04-12T14:30:48.001Z,4.25
2018-04-12T14:33:14.172Z,5.32
2018-04-12T14:35:40.183Z,4.68
2018-04-12T14:38:07.077Z,4.70
2018-04-12T14:40:33.152Z,3.53
2018-04-12T14:42:59.234Z,4.00
2018-04-12T14:45:25.309Z,3.85
2018-04-12T14:47:51.353Z,4.12
2018-04-12T14:50:17.447Z,4.20
2018-04-12T14:52:43.468Z,4.75
2018-04-12T14:55:10.352Z,3.62
2018-04-12T14:57:36.397Z,3.70
2018-04-12T15:00:02.462Z,3.20
2018-04-12T15:02:28.515Z,7.20
2018-04-12T15:04:54.704Z,7.68
2018-04-12T15:07:21.449Z,7.20
2018-04-12T15:09:48.226Z,7.53
2018-04-12T15:12:14.275Z,7.45
2018-04-12T15:14:40.299Z,8.27
2018-04-12T15:17:06.335Z,6.30
2018-04-12T15:19:32.344Z,7.93
2018-04-12T15:21:58.583Z,7.20
2018-04-12T15:24:24.670Z,7.40
2018-04-12T15:26:50.668Z,7.45
2018-04-12T15:29:17.493Z,7.10
2018-04-12T15:31:43.481Z,7.40
2018-04-12T15:34:09.680Z,8.30
2018-04-12T15:36:35.708Z,7.20
2018-04-12T15:39:01.742Z,7.80
2018-04-12T15:41:27.732Z,6.67
2018-04-12T15:43:55.609Z,4.90
2018-04-12T15:46:21.599Z,3.73
2018-04-12T15:48:47.603Z,4.50
2018-04-12T15:51:13.666Z,4.10
2018-04-12T15:53:39.760Z,4.70
2018-04-12T15:56:05.806Z,3.53
2018-04-12T15:58:32.558Z,3.23
2018-04-12T16:00:58.711Z,3.80
2018-04-12T16:03:24.888Z,4.50
2018-04-12T16:05:51.698Z,5.60
2018-04-12T16:08:17.723Z,6.00
2018-04-12T16:10:43.782Z,6.20
2018-04-12T16:13:10.554Z,5.50
2018-04-12T16:15:36.599Z,5.22
2018-04-12T16:18:02.755Z,5.70
2018-04-12T16:20:28.814Z,6.53
2018-04-12T16:22:54.858Z,5.80
2018-04-12T16:25:21.024Z,5.50
2018-04-12T16:27:47.618Z,5.47
2018-04-12T16:30:13.670Z,4.90
2018-04-12T16:32:39.713Z,4.95
2018-04-12T16:35:05.768Z,4.90
2018-04-12T16:37:31.864Z,5.25
2018-04-12T16:39:57.916Z,5.10
2018-04-12T16:42:24.730Z,5.18
2018-04-12T16:44:52.655Z,4.80
2018-04-12T16:47:20.700Z,5.03
2018-04-12T16:49:47.992Z,4.50
2018-04-12T16:52:14.035Z,4.67
2018-04-12T16:54:40.393Z,3.97
2018-04-12T16:57:07.229Z,3.50
2018-04-12T16:59:33.335Z,4.20
2018-04-12T17:01:59.524Z,3.33
2018-04-12T17:04:25.737Z,2.70
2018-04-12T17:06:51.946Z,2.00
2018-04-12T17:09:19.731Z,1.40
2018-04-12T17:11:46.984Z,1.30
2018-04-12T17:14:13.035Z,1.30
2018-04-12T17:16:39.095Z,1.30
2018-04-12T17:19:05.187Z,1.37
2018-04-12T17:21:31.251Z,1.33
2018-04-12T17:23:58.094Z,1.20
2018-04-12T17:26:24.130Z,1.42
2018-04-12T17:28:50.950Z,1.25
2018-04-12T17:31:16.989Z,1.10
2018-04-12T17:33:43.768Z,1.20
2018-04-12T17:36:10.278Z,1.00
2018-04-12T17:38:37.051Z,1.08
2018-04-12T17:41:03.100Z,1.10
2018-04-12T17:43:29.141Z,0.95
2018-04-12T17:45:55.168Z,5.53
2018-04-12T17:48:21.251Z,7.93
2018-04-12T17:50:47.434Z,8.18
2018-04-12T17:53:13.464Z,7.68
2018-04-12T17:55:40.319Z,8.52
2018-04-12T17:58:07.111Z,8.85
2018-04-12T18:00:33.132Z,9.35
2018-04-12T18:02:59.229Z,8.82
2018-04-12T18:05:25.427Z,9.75
2018-04-12T18:07:52.346Z,9.82
2018-04-12T18:10:18.390Z,8.82
2018-04-12T18:12:45.273Z,9.50
2018-04-12T18:15:11.302Z,10.35
2018-04-12T18:17:37.378Z,8.75
2018-04-12T18:20:03.453Z,8.75
2018-04-12T18:22:30.172Z,9.50
2018-04-12T18:24:56.258Z,9.57
2018-04-12T18:27:22.295Z,9.30
2018-04-12T18:29:48.420Z,9.70
2018-04-12T18:32:15.201Z,9.30
2018-04-12T18:34:41.282Z,8.65
2018-04-12T18:37:07.298Z,9.90
2018-04-12T18:39:33.403Z,10.68
2018-04-12T18:41:59.456Z,10.80
2018-04-12T18:44:26.282Z,9.82
2018-04-12T18:46:52.472Z,10.85
2018-04-12T18:49:18.519Z,10.20
2018-04-12T18:51:44.640Z,9.10
2018-04-12T18:54:10.665Z,10.60
2018-04-12T18:56:36.747Z,9.75
2018-04-12T18:59:02.760Z,9.38
2018-04-12T19:01:28.824Z,10.05
2018-04-12T19:03:54.865Z,10.05
2018-04-12T19:06:20.947Z,10.27
2018-04-12T19:08:47.135Z,10.05
2018-04-12T19:11:13.158Z,10.80
2018-04-12T19:13:39.246Z,9.60
2018-04-12T19:16:05.289Z,10.30
2018-04-12T19:18:31.321Z,10.27
2018-04-12T19:20:57.486Z,10.50
2018-04-12T19:23:24.285Z,9.45
2018-04-12T19:25:50.357Z,9.77
2018-04-12T19:28:16.390Z,10.07
2018-04-12T19:30:42.441Z,9.95
2018-04-12T19:33:08.470Z,10.20
2018-04-12T19:35:34.527Z,9.98
2018-04-12T19:38:00.552Z,10.80
2018-04-12T19:40:26.633Z,10.35
2018-04-12T19:42:52.678Z,9.63
2018-04-12T19:45:18.747Z,9.57
2018-04-12T19:47:45.578Z,9.25
2018-04-12T19:50:11.677Z,10.13
2018-04-12T19:52:37.896Z,9.38
2018-04-12T19:55:03.959Z,10.45
2018-04-12T19:57:30.725Z,10.57
2018-04-12T19:59:56.748Z,9.10
2018-04-12T20:02:22.823Z,9.25
2018-04-12T20:04:48.859Z,8.80
2018-04-12T20:07:15.818Z,9.82
2018-04-12T20:09:42.755Z,9.43
2018-04-12T20:12:09.531Z,9.40
2018-04-12T20:14:35.583Z,9.25
2018-04-12T20:17:01.660Z,9.73
2018-04-12T20:19:27.712Z,9.18
2018-04-12T20:21:53.728Z,10.35
2018-04-12T20:24:19.889Z,10.30
2018-04-12T20:26:45.982Z,10.32
2018-04-12T20:29:12.046Z,10.35
2018-04-12T20:31:38.080Z,9.27
2018-04-12T20:34:04.162Z,9.40
2018-04-12T20:36:30.182Z,9.82
2018-04-12T20:38:56.239Z,10.35
2018-04-12T20:41:22.419Z,10.65
2018-04-12T20:43:48.491Z,10.75
2018-04-12T20:46:14.579Z,9.35
2018-04-12T20:48:40.591Z,10.70
2018-04-12T20:51:06.631Z,11.30
2018-04-12T20:53:32.671Z,10.63
2018-04-12T20:55:58.764Z,10.50
2018-04-12T20:58:24.772Z,10.40
2018-04-12T21:00:51.555Z,10.30
2018-04-12T21:03:17.606Z,10.38
2018-04-12T21:05:43.799Z,10.55
2018-04-12T21:08:09.952Z,10.98
2018-04-12T21:10:35.975Z,11.18
2018-04-12T21:13:02.123Z,10.75
2018-04-12T21:15:28.911Z,10.23
2018-04-12T21:17:54.973Z,10.60
2018-04-12T21:20:20.999Z,10.77
2018-04-12T21:22:47.072Z,9.30
2018-04-12T21:25:13.107Z,10.55
2018-04-12T21:27:39.287Z,11.05
2018-04-12T21:30:05.368Z,10.20
2018-04-12T21:32:31.403Z,10.52
2018-04-12T21:34:57.459Z,10.98
2018-04-12T21:37:24.352Z,10.65
2018-04-12T21:39:51.120Z,10.55
2018-04-12T21:42:17.163Z,10.25
2018-04-12T21:44:43.311Z,10.77
2018-04-12T21:47:10.074Z,11.40
2018-04-12T21:49:36.151Z,12.32
2018-04-12T21:52:02.169Z,11.93
2018-04-12T21:54:28.203Z,10.65
2018-04-12T21:56:54.247Z,11.35
2018-04-12T21:59:21.011Z,11.57
2018-04-12T22:01:47.195Z,11.27
2018-04-12T22:04:13.365Z,11.30
2018-04-12T22:06:39.422Z,10.80
2018-04-12T22:09:05.467Z,10.50
2018-04-12T22:11:31.489Z,12.52
2018-04-12T22:13:57.496Z,11.57
2018-04-12T22:16:23.625Z,11.85
2018-04-12T22:18:49.629Z,11.27
2018-04-12T22:21:15.662Z,11.43
2018-04-12T22:23:41.703Z,11.50
2018-04-12T22:26:07.718Z,10.68
2018-04-12T22:28:33.751Z,11.30
2018-04-12T22:30:59.749Z,11.23
2018-04-12T22:33:25.873Z,11.43
2018-04-12T22:35:51.965Z,10.73
2018-04-12T22:38:18.021Z,11.10
2018-04-12T22:40:44.083Z,10.55
2018-04-12T22:43:10.119Z,11.35
2018-04-12T22:45:36.881Z,10.38
2018-04-12T22:48:03.110Z,10.57
2018-04-12T22:50:29.133Z,11.70
2018-04-12T22:52:55.134Z,10.02
2018-04-12T22:55:29.815Z,11.15
2018-04-12T22:58:03.023Z,10.88
2018-04-12T23:00:36.521Z,11.80
2018-04-12T23:03:10.442Z,10.27
2018-04-12T23:05:59.724Z,11.10
2018-04-12T23:08:49.988Z,10.93
2018-04-12T23:11:39.557Z,10.75
2018-04-12T23:14:29.366Z,10.50
2018-04-12T23:17:18.879Z,10.20
2018-04-12T23:20:08.714Z,10.20
2018-04-12T23:22:58.574Z,10.70
2018-04-12T23:25:48.699Z,9.90
2018-04-12T23:28:39.020Z,10.20
2018-04-12T23:31:29.016Z,10.32
2018-04-12T23:34:16.874Z,11.20
2018-04-12T23:36:43.068Z,10.10
2018-04-12T23:39:09.084Z,10.15
2018-04-12T23:41:35.095Z,10.60
2018-04-12T23:44:01.869Z,10.48
2018-04-12T23:46:27.927Z,10.32
2018-04-12T23:48:53.971Z,11.20
2018-04-12T23:51:20.761Z,10.50
2018-04-12T23:53:46.895Z,10.25
2018-04-12T23:56:12.915Z,10.55
2018-04-12T23:58:38.931Z,9.57
